Time,TemperatureF,DewpointF,PressureIn,WindDirection,WindDirectionDegrees,WindSpeedMPH,WindSpeedGustMPH,Humidity,HourlyPrecipIn,Conditions,Clouds,dailyrainin,SolarRadiationWatts/m^2,SoftwareType,DateUTC
2015-09-05 00:03:00,56.7,55.0,29.77,NW,312,0.0,0.0,94,0.00,,,0.00,0,WeatherCatV2.20B280,2015-09-05 04:03:00,
2015-09-05 00:08:00,56.6,54.9,29.77,NW,312,0.0,0.0,94,0.00,,,0.00,0,WeatherCatV2.20B280,2015-09-05 04:08:00,
2015-09-05 00:13:00,56.4,54.7,29.78,NW,312,0.0,0.0,94,0.00,,,0.00,0,WeatherCatV2.20B280,2015-09-05 04:13:00,
2015-09-05 00:18:00,56.3,54.6,29.77,NW,312,0.0,0.0,94,0.00,,,0.00,0,WeatherCatV2.20B280,2015-09-05 04:18:00,
2015-09-05 00:23:00,56.2,54.5,29.77,NW,312,0.0,0.0,94,0.00,,,0.00,0,WeatherCatV2.20B280,2015-09-05 04:23:00,
2015-09-05 00:28:00,56.1,54.4,29.77,NW,312,0.0,0.0,94,0.00,,,0.00,0,WeatherCatV2.20B280,2015-09-05 04:28:00,
2015-09-05 00:33:00,56.0,54.3,29.77,NW,312,0.0,0.0,94,0.00,,,0.00,0,WeatherCatV2.20B280,2015-09-05 04:33:00,
2015-09-05 00:38:00,55.9,54.2,29.78,NW,312,0.0,0.0,94,0.00,,,0.00,0,WeatherCatV2.20B280,2015-09-05 04:38:00,
2015-09-05 00:43:00,55.7,54.0,29.78,NW,312,0.0,0.0,94,0.00,,,0.00,0,WeatherCatV2.20B280,2015-09-05 04:43:00,
2015-09-05 00:48:00,55.6,54.2,29.78,NW,312,0.0,0.0,95,0.00,,,0.00,0,WeatherCatV2.20B280,2015-09-05 04:48:00,
2015-09-05 00:53:00,55.5,53.8,29.78,NW,312,0.0,0.0,94,0.00,,,0.00,0,WeatherCatV2.20B280,2015-09-05 04:53:00,
2015-09-05 00:58:00,55.4,54.0,29.78,NW,312,0.0,0.0,95,0.00,,,0.00,0,WeatherCatV2.20B280,2015-09-05 04:58:00,
2015-09-05 01:03:00,55.3,53.9,29.78,NW,312,0.0,0.0,95,0.00,,,0.00,0,WeatherCatV2.20B280,2015-09-05 05:03:00,
2015-09-05 01:08:00,55.2,53.8,29.78,NW,312,0.0,0.0,95,0.00,,,0.00,0,WeatherCatV2.20B280,2015-09-05 05:08:00,
2015-09-05 01:13:00,55.1,53.7,29.78,NW,312,0.0,0.0,95,0.00,,,0.00,0,WeatherCatV2.20B280,2015-09-05 05:13:00,
2015-09-05 01:18:00,55.1,53.7,29.78,NW,312,0.0,0.0,95,0.00,,,0.00,0,WeatherCatV2.20B280,2015-09-05 05:18:00,
2015-09-05 01:23:00,55.0,53.6,29.78,NW,312,0.0,0.0,95,0.00,,,0.00,0,WeatherCatV2.20B280,2015-09-05 05:23:00,
2015-09-05 01:28:00,54.9,53.5,29.78,NW,312,0.0,0.0,95,0.00,,,0.00,0,WeatherCatV2.20B280,2015-09-05 05:28:00,
2015-09-05 01:38:00,54.9,53.5,29.77,NW,312,0.0,0.0,95,0.00,,,0.00,0,WeatherCatV2.20B280,2015-09-05 05:38:00,
2015-09-05 01:43:00,54.9,53.8,29.77,NW,312,0.0,0.0,96,0.00,,,0.00,0,WeatherCatV2.20B280,2015-09-05 05:43:00,
2015-09-05 01:48:00,54.9,53.8,29.77,NW,312,0.0,0.0,96,0.00,,,0.00,0,WeatherCatV2.20B280,2015-09-05 05:48:00,
2015-09-05 01:53:00,55.0,53.9,29.77,NW,312,0.0,0.0,96,0.00,,,0.00,0,WeatherCatV2.20B280,2015-09-05 05:53:00,
2015-09-05 01:58:00,55.0,54.2,29.77,NW,312,0.0,0.0,97,0.00,,,0.00,0,WeatherCatV2.20B280,2015-09-05 05:58:00,
2015-09-05 02:03:00,55.0,54.2,29.76,NW,312,0.0,0.0,97,0.00,,,0.00,0,WeatherCatV2.20B280,2015-09-05 06:03:00,
2015-09-05 02:08:00,55.0,54.2,29.77,NW,312,0.0,0.0,97,0.00,,,0.00,0,WeatherCatV2.20B280,2015-09-05 06:08:00,
2015-09-05 02:13:00,55.0,54.2,29.77,NW,312,0.0,0.0,97,0.00,,,0.00,0,WeatherCatV2.20B280,2015-09-05 06:13:00,
2015-09-05 02:18:00,55.1,54.3,29.77,NW,312,0.0,0.0,97,0.00,,,0.00,0,WeatherCatV2.20B280,2015-09-05 06:18:00,
2015-09-05 02:23:00,55.1,54.3,29.77,NW,312,0.0,0.0,97,0.00,,,0.00,0,WeatherCatV2.20B280,2015-09-05 06:23:00,
2015-09-05 02:28:00,55.1,54.3,29.77,NW,312,0.0,0.0,97,0.00,,,0.00,0,WeatherCatV2.20B280,2015-09-05 06:28:00,
2015-09-05 02:33:00,55.0,54.2,29.77,NW,312,0.0,0.0,97,0.00,,,0.00,0,WeatherCatV2.20B280,2015-09-05 06:33:00,
2015-09-05 02:38:00,55.0,53.9,29.77,NW,312,0.0,0.0,96,0.00,,,0.00,0,WeatherCatV2.20B280,2015-09-05 06:38:00,
2015-09-05 02:43:00,54.9,53.8,29.77,NW,312,0.0,0.0,96,0.00,,,0.00,0,WeatherCatV2.20B280,2015-09-05 06:43:00,
2015-09-05 02:48:00,54.9,54.1,29.77,NW,312,0.0,0.0,97,0.00,,,0.00,0,WeatherCatV2.20B280,2015-09-05 06:48:00,
2015-09-05 02:53:00,54.9,54.1,29.77,NW,312,0.0,0.0,97,0.00,,,0.00,0,WeatherCatV2.20B280,2015-09-05 06:53:00,
2015-09-05 02:58:00,54.9,54.1,29.77,NW,312,0.0,0.0,97,0.00,,,0.00,0,WeatherCatV2.20B280,2015-09-05 06:58:00,
2015-09-05 03:03:00,55.0,54.2,29.77,NW,312,0.0,0.0,97,0.00,,,0.00,0,WeatherCatV2.20B280,2015-09-05 07:03:00,
2015-09-05 03:08:00,55.0,54.4,29.77,NW,312,0.0,0.0,98,0.00,,,0.00,0,WeatherCatV2.20B280,2015-09-05 07:08:00,
2015-09-05 03:13:00,55.0,54.4,29.77,NW,312,0.0,0.0,98,0.00,,,0.00,0,WeatherCatV2.20B280,2015-09-05 07:13:00,
2015-09-05 03:18:00,54.9,54.1,29.78,NW,312,0.0,0.0,97,0.00,,,0.00,0,WeatherCatV2.20B280,2015-09-05 07:18:00,
2015-09-05 03:23:00,54.8,54.2,29.78,NW,312,0.0,0.0,98,0.00,,,0.00,0,WeatherCatV2.20B280,2015-09-05 07:23:00,
2015-09-05 03:28:00,54.7,54.1,29.78,NW,312,0.0,0.0,98,0.00,,,0.00,0,WeatherCatV2.20B280,2015-09-05 07:28:00,
2015-09-05 03:33:00,54.7,54.1,29.78,NW,312,0.0,0.0,98,0.00,,,0.00,0,WeatherCatV2.20B280,2015-09-05 07:33:00,
2015-09-05 03:38:00,54.6,54.0,29.78,NW,312,0.0,0.0,98,0.00,,,0.00,0,WeatherCatV2.20B280,2015-09-05 07:38:00,
2015-09-05 03:43:00,54.6,54.0,29.78,NW,312,0.0,0.0,98,0.00,,,0.00,0,WeatherCatV2.20B280,2015-09-05 07:43:00,
2015-09-05 03:48:00,54.6,54.0,29.78,NW,312,0.0,0.0,98,0.00,,,0.00,0,WeatherCatV2.20B280,2015-09-05 07:48:00,
2015-09-05 03:53:00,54.6,54.0,29.78,NW,312,0.0,0.0,98,0.00,,,0.00,0,WeatherCatV2.20B280,2015-09-05 07:53:00,
2015-09-05 03:58:00,54.6,54.0,29.78,NW,312,0.0,0.0,98,0.00,,,0.00,0,WeatherCatV2.20B280,2015-09-05 07:58:00,
2015-09-05 04:03:00,54.5,54.0,29.78,NW,312,0.0,0.0,98,0.00,,,0.00,0,WeatherCatV2.20B280,2015-09-05 08:03:00,
2015-09-05 04:08:00,54.5,54.0,29.78,NW,312,0.0,0.0,98,0.00,,,0.00,0,WeatherCatV2.20B280,2015-09-05 08:08:00,
2015-09-05 04:13:00,54.4,53.8,29.78,NW,312,0.0,0.0,98,0.00,,,0.00,0,WeatherCatV2.20B280,2015-09-05 08:13:00,
2015-09-05 04:18:00,54.3,53.8,29.78,NW,312,0.0,0.0,98,0.00,,,0.00,0,WeatherCatV2.20B280,2015-09-05 08:18:00,
2015-09-05 04:23:00,54.2,53.7,29.78,NW,312,0.0,0.0,98,0.00,,,0.00,0,WeatherCatV2.20B280,2015-09-05 08:23:00,
2015-09-05 04:28:00,54.2,53.7,29.78,NW,312,0.0,0.0,98,0.00,,,0.00,0,WeatherCatV2.20B280,2015-09-05 08:28:00,
2015-09-05 04:38:00,54.0,53.5,29.78,NW,312,0.0,0.0,98,0.00,,,0.00,0,WeatherCatV2.20B280,2015-09-05 08:38:00,
2015-09-05 04:43:00,54.0,53.5,29.79,NW,312,0.0,0.0,98,0.00,,,0.00,0,WeatherCatV2.20B280,2015-09-05 08:43:00,
2015-09-05 04:48:00,54.0,53.5,29.79,NW,312,0.0,0.0,98,0.00,,,0.00,0,WeatherCatV2.20B280,2015-09-05 08:48:00,
2015-09-05 04:53:00,54.0,53.5,29.79,NW,312,0.0,0.0,98,0.00,,,0.00,0,WeatherCatV2.20B280,2015-09-05 08:53:00,
2015-09-05 04:58:00,54.0,53.5,29.79,NW,312,0.0,0.0,98,0.00,,,0.00,0,WeatherCatV2.20B280,2015-09-05 08:58:00,
2015-09-05 05:03:00,54.1,53.5,29.80,NW,312,0.0,0.0,98,0.00,,,0.00,0,WeatherCatV2.20B280,2015-09-05 09:03:00,
2015-09-05 05:08:00,54.2,53.7,29.80,NW,312,0.0,0.0,98,0.00,,,0.00,0,WeatherCatV2.20B280,2015-09-05 09:08:00,
2015-09-05 05:13:00,54.3,54.0,29.80,NW,312,0.0,0.0,99,0.00,,,0.00,0,WeatherCatV2.20B280,2015-09-05 09:13:00,
2015-09-05 05:18:00,54.4,54.1,29.80,NW,312,0.0,0.0,99,0.00,,,0.00,0,WeatherCatV2.20B280,2015-09-05 09:18:00,
2015-09-05 05:23:00,54.4,54.1,29.80,NW,312,0.0,0.0,99,0.00,,,0.00,0,WeatherCatV2.20B280,2015-09-05 09:23:00,
2015-09-05 05:28:00,54.3,53.8,29.81,NW,312,0.0,0.0,98,0.00,,,0.00,0,WeatherCatV2.20B280,2015-09-05 09:28:00,
2015-09-05 05:33:00,54.1,53.5,29.81,NW,312,0.0,0.0,98,0.00,,,0.00,0,WeatherCatV2.20B280,2015-09-05 09:33:00,
2015-09-05 05:38:00,54.0,53.5,29.81,NW,312,0.0,0.0,98,0.00,,,0.00,0,WeatherCatV2.20B280,2015-09-05 09:38:00,
2015-09-05 05:43:00,53.8,53.2,29.81,NW,312,0.0,0.0,98,0.00,,,0.00,0,WeatherCatV2.20B280,2015-09-05 09:43:00,
2015-09-05 05:48:00,53.7,53.2,29.81,NW,312,0.0,0.0,98,0.00,,,0.00,0,WeatherCatV2.20B280,2015-09-05 09:48:00,
2015-09-05 05:53:00,53.5,53.0,29.81,NW,312,0.0,0.0,98,0.00,,,0.00,0,WeatherCatV2.20B280,2015-09-05 09:53:00,
2015-09-05 05:58:00,53.3,52.5,29.81,NW,312,0.0,0.0,97,0.00,,,0.00,0,WeatherCatV2.20B280,2015-09-05 09:58:00,
2015-09-05 06:03:00,53.2,52.4,29.81,NW,312,0.0,0.0,97,0.00,,,0.00,0,WeatherCatV2.20B280,2015-09-05 10:03:00,
2015-09-05 06:08:00,53.2,52.4,29.81,NW,312,0.0,0.0,97,0.00,,,0.00,0,WeatherCatV2.20B280,2015-09-05 10:08:00,
2015-09-05 06:13:00,53.0,52.2,29.81,NW,312,0.0,0.0,97,0.00,,,0.00,0,WeatherCatV2.20B280,2015-09-05 10:13:00,
2015-09-05 06:18:00,53.0,52.2,29.81,NW,312,0.0,0.0,97,0.00,,,0.00,0,WeatherCatV2.20B280,2015-09-05 10:18:00,
2015-09-05 06:23:00,52.9,52.1,29.81,NW,312,0.0,0.0,97,0.00,,,0.00,0,WeatherCatV2.20B280,2015-09-05 10:23:00,
2015-09-05 06:28:00,52.8,52.0,29.81,NW,312,0.0,0.0,97,0.00,,,0.00,0,WeatherCatV2.20B280,2015-09-05 10:28:00,
2015-09-05 06:33:00,52.7,51.9,29.82,NW,312,0.0,0.0,97,0.00,,,0.00,0,WeatherCatV2.20B280,2015-09-05 10:33:00,
2015-09-05 06:38:00,52.7,52.2,29.82,NW,312,0.0,0.0,98,0.00,,,0.00,0,WeatherCatV2.20B280,2015-09-05 10:38:00,
2015-09-05 06:43:00,52.7,51.9,29.82,NW,312,0.0,0.0,97,0.00,,,0.00,0,WeatherCatV2.20B280,2015-09-05 10:43:00,
2015-09-05 06:48:00,52.7,52.2,29.82,NW,312,0.0,0.0,98,0.00,,,0.00,5,WeatherCatV2.20B280,2015-09-05 10:48:00,
2015-09-05 06:53:00,52.6,52.0,29.82,NW,312,0.0,0.0,98,0.00,,,0.00,7,WeatherCatV2.20B280,2015-09-05 10:53:00,
2015-09-05 06:58:00,52.6,52.0,29.82,NW,312,0.0,0.0,98,0.00,,,0.00,9,WeatherCatV2.20B280,2015-09-05 10:58:00,
2015-09-05 07:03:00,52.5,52.0,29.82,NW,312,0.0,0.0,98,0.00,,,0.00,9,WeatherCatV2.20B280,2015-09-05 11:03:00,
2015-09-05 07:08:00,52.5,52.0,29.83,NW,312,0.0,0.0,98,0.00,,,0.00,7,WeatherCatV2.20B280,2015-09-05 11:08:00,
2015-09-05 07:13:00,52.4,51.8,29.82,NW,312,0.0,0.0,98,0.00,,,0.00,9,WeatherCatV2.20B280,2015-09-05 11:13:00,
2015-09-05 07:18:00,52.4,51.8,29.82,NW,312,0.0,0.0,98,0.00,,,0.00,5,WeatherCatV2.20B280,2015-09-05 11:18:00,
2015-09-05 07:23:00,52.4,51.8,29.82,NW,312,0.0,0.0,98,0.00,,,0.00,12,WeatherCatV2.20B280,2015-09-05 11:23:00,
2015-09-05 07:33:00,52.3,51.8,29.82,NW,312,0.0,0.0,98,0.00,,,0.00,16,WeatherCatV2.20B280,2015-09-05 11:33:00,
2015-09-05 07:38:00,52.3,51.8,29.83,NW,312,0.0,0.0,98,0.00,,,0.00,16,WeatherCatV2.20B280,2015-09-05 11:38:00,
2015-09-05 07:48:00,52.5,52.0,29.82,NW,312,0.0,0.0,98,0.00,,,0.00,19,WeatherCatV2.20B280,2015-09-05 11:48:00,
2015-09-05 07:53:00,52.6,52.0,29.82,NW,312,0.0,0.0,98,0.00,,,0.00,23,WeatherCatV2.20B280,2015-09-05 11:53:00,
2015-09-05 07:58:00,52.8,52.2,29.82,NW,312,0.0,0.0,98,0.00,,,0.00,26,WeatherCatV2.20B280,2015-09-05 11:58:00,
2015-09-05 08:03:00,53.0,52.7,29.82,NW,312,0.0,0.0,99,0.00,,,0.00,25,WeatherCatV2.20B280,2015-09-05 12:03:00,
2015-09-05 08:08:00,53.2,52.9,29.82,NW,312,0.0,0.0,99,0.00,,,0.00,26,WeatherCatV2.20B280,2015-09-05 12:08:00,
2015-09-05 08:13:00,53.3,53.0,29.82,NW,312,0.0,0.0,99,0.00,,,0.00,28,WeatherCatV2.20B280,2015-09-05 12:13:00,
2015-09-05 08:18:00,53.5,53.2,29.82,NW,312,0.0,0.0,99,0.00,,,0.00,35,WeatherCatV2.20B280,2015-09-05 12:18:00,
2015-09-05 08:23:00,53.7,53.4,29.82,NW,312,0.0,0.0,99,0.00,,,0.01,30,WeatherCatV2.20B280,2015-09-05 12:23:00,
2015-09-05 08:28:00,53.8,53.5,29.82,NW,312,0.0,0.0,99,0.00,,,0.01,32,WeatherCatV2.20B280,2015-09-05 12:28:00,
2015-09-05 08:43:00,54.6,54.3,29.82,NW,312,0.0,0.0,99,0.00,,,0.01,37,WeatherCatV2.20B280,2015-09-05 12:43:00,
2015-09-05 08:48:00,54.9,54.6,29.82,NW,312,0.0,0.0,99,0.00,,,0.01,39,WeatherCatV2.20B280,2015-09-05 12:48:00,
2015-09-05 08:53:00,55.2,55.2,29.82,NW,312,0.0,0.0,100,0.00,,,0.01,44,WeatherCatV2.20B280,2015-09-05 12:53:00,
2015-09-05 08:58:00,55.5,55.2,29.82,NW,312,0.0,0.0,99,0.00,,,0.01,56,WeatherCatV2.20B280,2015-09-05 12:58:00,
2015-09-05 09:03:00,55.8,55.8,29.82,NW,312,0.0,0.0,100,0.00,,,0.01,65,WeatherCatV2.20B280,2015-09-05 13:03:00,
2015-09-05 09:08:00,56.1,56.1,29.82,NW,312,0.0,0.0,100,0.00,,,0.01,60,WeatherCatV2.20B280,2015-09-05 13:08:00,
2015-09-05 09:13:00,56.4,56.4,29.82,NW,312,0.0,0.0,100,0.00,,,0.01,60,WeatherCatV2.20B280,2015-09-05 13:13:00,
2015-09-05 09:18:00,56.7,56.7,29.82,NW,312,0.0,0.0,100,0.00,,,0.01,62,WeatherCatV2.20B280,2015-09-05 13:18:00,
2015-09-05 09:23:00,57.0,57.0,29.82,NW,312,0.0,0.0,100,0.00,,,0.01,53,WeatherCatV2.20B280,2015-09-05 13:23:00,
2015-09-05 09:28:00,57.2,57.2,29.82,NW,312,0.0,0.0,100,0.00,,,0.01,53,WeatherCatV2.20B280,2015-09-05 13:28:00,
2015-09-05 09:33:00,57.4,57.4,29.82,NW,312,0.0,0.0,100,0.00,,,0.01,40,WeatherCatV2.20B280,2015-09-05 13:33:00,
2015-09-05 09:38:00,57.7,57.7,29.82,NW,312,0.0,0.0,100,0.00,,,0.01,56,WeatherCatV2.20B280,2015-09-05 13:38:00,
2015-09-05 09:43:00,57.9,57.9,29.82,NW,312,0.0,0.0,100,0.00,,,0.01,54,WeatherCatV2.20B280,2015-09-05 13:43:00,
2015-09-05 09:48:00,58.1,58.1,29.81,NW,312,0.0,0.0,100,0.00,,,0.01,56,WeatherCatV2.20B280,2015-09-05 13:48:00,
2015-09-05 09:53:00,58.4,58.4,29.81,NW,312,0.0,0.0,100,0.00,,,0.01,56,WeatherCatV2.20B280,2015-09-05 13:53:00,
2015-09-05 09:58:00,58.7,58.7,29.81,NW,312,0.0,0.0,100,0.00,,,0.01,58,WeatherCatV2.20B280,2015-09-05 13:58:00,
2015-09-05 10:03:00,59.0,59.0,29.81,NW,312,0.0,0.0,100,0.00,,,0.01,58,WeatherCatV2.20B280,2015-09-05 14:03:00,
2015-09-05 10:08:00,59.0,59.0,29.81,NW,312,0.0,0.0,100,0.00,,,0.01,62,WeatherCatV2.20B280,2015-09-05 14:08:00,
2015-09-05 10:13:00,59.3,59.3,29.81,NW,312,0.0,0.0,100,0.00,,,0.01,60,WeatherCatV2.20B280,2015-09-05 14:13:00,
2015-09-05 10:18:00,59.4,59.4,29.81,NW,312,0.0,0.0,100,0.00,,,0.01,63,WeatherCatV2.20B280,2015-09-05 14:18:00,
2015-09-05 10:23:00,59.5,59.5,29.81,NW,312,0.0,0.0,100,0.00,,,0.01,63,WeatherCatV2.20B280,2015-09-05 14:23:00,
2015-09-05 10:28:00,59.8,59.8,29.81,NW,312,0.0,0.0,100,0.00,,,0.01,63,WeatherCatV2.20B280,2015-09-05 14:28:00,
2015-09-05 10:33:00,60.1,60.1,29.81,NW,312,0.0,0.0,100,0.00,,,0.01,65,WeatherCatV2.20B280,2015-09-05 14:33:00,